<?xml version="1.0" encoding="UTF-8" standalone="no" ?>
<gpx xmlns="http://www.topografix.com/GPX/1/1" xmlns:xsi="http://www.w3.org/2001/XMLSchema-instance" xsi:schemaLocation="http://www.topografix.com/GPX/1/1 http://www.topografix.com/GPX/1/1/gpx.xsd" version="1.1" creator="VisuGPX - https://www.visugpx.com">
  <metadata>
    <name>Rando Esquerdes 12,4 Km 200 D+</name>
    <desc><![CDATA[petite randonnée pédestre]]></desc>
  </metadata>
  <wpt lat="50.70719" lon="2.18174">
    <ele>31.7</ele>
    <name><![CDATA[Parking de la m]]></name>
    <type><![CDATA[GENERIC]]></type>
  </wpt>
  <wpt lat="50.70447" lon="2.18122">
    <ele>41.9</ele>
    <name><![CDATA[Chapelle]]></name>
    <type><![CDATA[GENERIC]]></type>
  </wpt>
  <wpt lat="50.70128" lon="2.17415">
    <ele>72.7</ele>
    <name><![CDATA[Hangar Fauveaux]]></name>
    <type><![CDATA[GENERIC]]></type>
  </wpt>
  <wpt lat="50.69107" lon="2.1498">
    <ele>131.2</ele>
    <name><![CDATA[Danger ]]></name>
    <type><![CDATA[GENERIC]]></type>
  </wpt>
  <wpt lat="50.68576" lon="2.14535">
    <ele>48</ele>
    <name><![CDATA[prendre a droit]]></name>
    <type><![CDATA[GENERIC]]></type>
  </wpt>
  <wpt lat="50.68174" lon="2.15527">
    <ele>49.2</ele>
    <name><![CDATA[À droite, Rue d]]></name>
    <type><![CDATA[GENERIC]]></type>
  </wpt>
  <wpt lat="50.66914" lon="2.16301">
    <ele>52</ele>
    <name><![CDATA[Faire un virage]]></name>
    <type><![CDATA[GENERIC]]></type>
  </wpt>
  <wpt lat="50.67101" lon="2.17183">
    <ele>90.2</ele>
    <name><![CDATA[ À une patte d']]></name>
    <type><![CDATA[GENERIC]]></type>
  </wpt>
  <wpt lat="50.68117" lon="2.17583">
    <ele>127</ele>
    <name><![CDATA[À gauche à la p]]></name>
    <type><![CDATA[GENERIC]]></type>
  </wpt>
  <wpt lat="50.69833" lon="2.17259">
    <ele>64.3</ele>
    <name><![CDATA[Point de passag]]></name>
    <type><![CDATA[GENERIC]]></type>
  </wpt>
  <wpt lat="50.70721" lon="2.18173">
    <ele>31.8</ele>
    <name><![CDATA[Parking de la m]]></name>
    <type><![CDATA[GENERIC]]></type>
  </wpt>
  <wpt lat="50.68706" lon="2.17113">
    <ele>128.6</ele>
    <name><![CDATA[Virer à droite]]></name>
    <type><![CDATA[GENERIC]]></type>
  </wpt>
  <trk>
    <name><![CDATA[Rando Esquerdes 12,4 Km 200 D+]]></name>
    <trkseg>
      <trkpt lat="50.70561" lon="2.18273">
        <ele>32.86</ele>
        <time>2025-11-07T15:45:38.000Z</time>
      </trkpt>
      <trkpt lat="50.70561" lon="2.18273">
        <ele>33.14</ele>
        <time>2025-11-07T15:45:38.000Z</time>
      </trkpt>
      <trkpt lat="50.70564" lon="2.18274">
        <ele>33.44</ele>
        <time>2025-11-07T15:45:38.002Z</time>
      </trkpt>
      <trkpt lat="50.70564" lon="2.18274">
        <ele>33.81</ele>
        <time>2025-11-07T15:45:38.004Z</time>
      </trkpt>
      <trkpt lat="50.70544" lon="2.18265">
        <ele>34.5</ele>
        <time>2025-11-07T15:45:38.020Z</time>
      </trkpt>
      <trkpt lat="50.70529" lon="2.1825">
        <ele>35.32</ele>
        <time>2025-11-07T15:45:38.049Z</time>
      </trkpt>
      <trkpt lat="50.70505" lon="2.18227">
        <ele>36.23</ele>
        <time>2025-11-07T15:45:38.099Z</time>
      </trkpt>
      <trkpt lat="50.70481" lon="2.18203">
        <ele>37.12</ele>
        <time>2025-11-07T15:45:38.170Z</time>
      </trkpt>
      <trkpt lat="50.70457" lon="2.18179">
        <ele>37.95</ele>
        <time>2025-11-07T15:45:38.262Z</time>
      </trkpt>
      <trkpt lat="50.70446" lon="2.18134">
        <ele>38.76</ele>
        <time>2025-11-07T15:45:38.377Z</time>
      </trkpt>
      <trkpt lat="50.7045" lon="2.18134">
        <ele>39.32</ele>
        <time>2025-11-07T15:45:38.495Z</time>
      </trkpt>
      <trkpt lat="50.70454" lon="2.18124">
        <ele>39.82</ele>
        <time>2025-11-07T15:45:38.619Z</time>
      </trkpt>
      <trkpt lat="50.70446" lon="2.18087">
        <ele>40.47</ele>
        <time>2025-11-07T15:45:38.761Z</time>
      </trkpt>
      <trkpt lat="50.70446" lon="2.1805">
        <ele>41.02</ele>
        <time>2025-11-07T15:45:38.920Z</time>
      </trkpt>
      <trkpt lat="50.70442" lon="2.18014">
        <ele>41.51</ele>
        <time>2025-11-07T15:45:39.096Z</time>
      </trkpt>
      <trkpt lat="50.70434" lon="2.1798">
        <ele>42</ele>
        <time>2025-11-07T15:45:39.289Z</time>
      </trkpt>
      <trkpt lat="50.70424" lon="2.17947">
        <ele>42.46</ele>
        <time>2025-11-07T15:45:39.499Z</time>
      </trkpt>
      <trkpt lat="50.70413" lon="2.17915">
        <ele>43.02</ele>
        <time>2025-11-07T15:45:39.726Z</time>
      </trkpt>
      <trkpt lat="50.70398" lon="2.17886">
        <ele>43.72</ele>
        <time>2025-11-07T15:45:39.970Z</time>
      </trkpt>
      <trkpt lat="50.70384" lon="2.17857">
        <ele>44.62</ele>
        <time>2025-11-07T15:45:40.231Z</time>
      </trkpt>
      <trkpt lat="50.70377" lon="2.17821">
        <ele>45.61</ele>
        <time>2025-11-07T15:45:40.510Z</time>
      </trkpt>
      <trkpt lat="50.70369" lon="2.17787">
        <ele>46.81</ele>
        <time>2025-11-07T15:45:40.806Z</time>
      </trkpt>
      <trkpt lat="50.70362" lon="2.17753">
        <ele>48</ele>
        <time>2025-11-07T15:45:41.118Z</time>
      </trkpt>
      <trkpt lat="50.70351" lon="2.17721">
        <ele>49.34</ele>
        <time>2025-11-07T15:45:41.447Z</time>
      </trkpt>
      <trkpt lat="50.70341" lon="2.17689">
        <ele>50.9</ele>
        <time>2025-11-07T15:45:41.793Z</time>
      </trkpt>
      <trkpt lat="50.70325" lon="2.1766">
        <ele>52.5</ele>
        <time>2025-11-07T15:45:42.157Z</time>
      </trkpt>
      <trkpt lat="50.70305" lon="2.17641">
        <ele>54.18</ele>
        <time>2025-11-07T15:45:42.538Z</time>
      </trkpt>
      <trkpt lat="50.70285" lon="2.17625">
        <ele>55.85</ele>
        <time>2025-11-07T15:45:42.935Z</time>
      </trkpt>
      <trkpt lat="50.70266" lon="2.17603">
        <ele>57.64</ele>
        <time>2025-11-07T15:45:43.350Z</time>
      </trkpt>
      <trkpt lat="50.70246" lon="2.17584">
        <ele>59.37</ele>
        <time>2025-11-07T15:45:43.782Z</time>
      </trkpt>
      <trkpt lat="50.70227" lon="2.17564">
        <ele>61.09</ele>
        <time>2025-11-07T15:45:44.231Z</time>
      </trkpt>
      <trkpt lat="50.70209" lon="2.17541">
        <ele>62.77</ele>
        <time>2025-11-07T15:45:44.697Z</time>
      </trkpt>
      <trkpt lat="50.70192" lon="2.17517">
        <ele>64.52</ele>
        <time>2025-11-07T15:45:45.180Z</time>
      </trkpt>
      <trkpt lat="50.70177" lon="2.1749">
        <ele>66.26</ele>
        <time>2025-11-07T15:45:45.679Z</time>
      </trkpt>
      <trkpt lat="50.70162" lon="2.17463">
        <ele>67.89</ele>
        <time>2025-11-07T15:45:46.195Z</time>
      </trkpt>
      <trkpt lat="50.70146" lon="2.17437">
        <ele>69.42</ele>
        <time>2025-11-07T15:45:46.728Z</time>
      </trkpt>
      <trkpt lat="50.70128" lon="2.17415">
        <ele>70.77</ele>
        <time>2025-11-07T15:45:47.278Z</time>
      </trkpt>
      <trkpt lat="50.70109" lon="2.17396">
        <ele>71.96</ele>
        <time>2025-11-07T15:45:47.844Z</time>
      </trkpt>
      <trkpt lat="50.70091" lon="2.17373">
        <ele>73.09</ele>
        <time>2025-11-07T15:45:48.427Z</time>
      </trkpt>
      <trkpt lat="50.70076" lon="2.17345">
        <ele>74.32</ele>
        <time>2025-11-07T15:45:49.027Z</time>
      </trkpt>
      <trkpt lat="50.70061" lon="2.17318">
        <ele>75.44</ele>
        <time>2025-11-07T15:45:49.644Z</time>
      </trkpt>
      <trkpt lat="50.70046" lon="2.1729">
        <ele>76.49</ele>
        <time>2025-11-07T15:45:50.278Z</time>
      </trkpt>
      <trkpt lat="50.70031" lon="2.17263">
        <ele>77.4</ele>
        <time>2025-11-07T15:45:50.929Z</time>
      </trkpt>
      <trkpt lat="50.70015" lon="2.17236">
        <ele>78.23</ele>
        <time>2025-11-07T15:45:51.597Z</time>
      </trkpt>
      <trkpt lat="50.69999" lon="2.17209">
        <ele>79.08</ele>
        <time>2025-11-07T15:45:52.283Z</time>
      </trkpt>
      <trkpt lat="50.69984" lon="2.17182">
        <ele>79.85</ele>
        <time>2025-11-07T15:45:52.985Z</time>
      </trkpt>
      <trkpt lat="50.69968" lon="2.17156">
        <ele>80.64</ele>
        <time>2025-11-07T15:45:53.704Z</time>
      </trkpt>
      <trkpt lat="50.69958" lon="2.17125">
        <ele>81.43</ele>
        <time>2025-11-07T15:45:54.439Z</time>
      </trkpt>
      <trkpt lat="50.69953" lon="2.17089">
        <ele>82.14</ele>
        <time>2025-11-07T15:45:55.192Z</time>
      </trkpt>
      <trkpt lat="50.69947" lon="2.17053">
        <ele>82.81</ele>
        <time>2025-11-07T15:45:55.962Z</time>
      </trkpt>
      <trkpt lat="50.69934" lon="2.17022">
        <ele>83.45</ele>
        <time>2025-11-07T15:45:56.749Z</time>
      </trkpt>
      <trkpt lat="50.69914" lon="2.17004">
        <ele>83.96</ele>
        <time>2025-11-07T15:45:57.553Z</time>
      </trkpt>
      <trkpt lat="50.69896" lon="2.1698">
        <ele>84.43</ele>
        <time>2025-11-07T15:45:58.374Z</time>
      </trkpt>
      <trkpt lat="50.69877" lon="2.16961">
        <ele>84.8</ele>
        <time>2025-11-07T15:45:59.212Z</time>
      </trkpt>
      <trkpt lat="50.69858" lon="2.16937">
        <ele>85.22</ele>
        <time>2025-11-07T15:46:00.067Z</time>
      </trkpt>
      <trkpt lat="50.69841" lon="2.16913">
        <ele>85.55</ele>
        <time>2025-11-07T15:46:00.940Z</time>
      </trkpt>
      <trkpt lat="50.69824" lon="2.16886">
        <ele>85.92</ele>
        <time>2025-11-07T15:46:01.830Z</time>
      </trkpt>
      <trkpt lat="50.69806" lon="2.16863">
        <ele>86.28</ele>
        <time>2025-11-07T15:46:02.737Z</time>
      </trkpt>
      <trkpt lat="50.69793" lon="2.16834">
        <ele>86.68</ele>
        <time>2025-11-07T15:46:03.661Z</time>
      </trkpt>
      <trkpt lat="50.6978" lon="2.16807">
        <ele>87.03</ele>
        <time>2025-11-07T15:46:04.601Z</time>
      </trkpt>
      <trkpt lat="50.69763" lon="2.16779">
        <ele>87.41</ele>
        <time>2025-11-07T15:46:05.559Z</time>
      </trkpt>
      <trkpt lat="50.69748" lon="2.16751">
        <ele>87.75</ele>
        <time>2025-11-07T15:46:06.534Z</time>
      </trkpt>
      <trkpt lat="50.69739" lon="2.16728">
        <ele>88.05</ele>
        <time>2025-11-07T15:46:07.521Z</time>
      </trkpt>
      <trkpt lat="50.69726" lon="2.16706">
        <ele>88.32</ele>
        <time>2025-11-07T15:46:08.522Z</time>
      </trkpt>
      <trkpt lat="50.69711" lon="2.1668">
        <ele>88.56</ele>
        <time>2025-11-07T15:46:09.540Z</time>
      </trkpt>
      <trkpt lat="50.69693" lon="2.16655">
        <ele>88.85</ele>
        <time>2025-11-07T15:46:10.575Z</time>
      </trkpt>
      <trkpt lat="50.69675" lon="2.16632">
        <ele>89.15</ele>
        <time>2025-11-07T15:46:11.627Z</time>
      </trkpt>
      <trkpt lat="50.69659" lon="2.16605">
        <ele>89.47</ele>
        <time>2025-11-07T15:46:12.697Z</time>
      </trkpt>
      <trkpt lat="50.69647" lon="2.16575">
        <ele>89.8</ele>
        <time>2025-11-07T15:46:13.783Z</time>
      </trkpt>
      <trkpt lat="50.69634" lon="2.16542">
        <ele>90.15</ele>
        <time>2025-11-07T15:46:14.887Z</time>
      </trkpt>
      <trkpt lat="50.69621" lon="2.16512">
        <ele>90.52</ele>
        <time>2025-11-07T15:46:16.008Z</time>
      </trkpt>
      <trkpt lat="50.69608" lon="2.16483">
        <ele>90.88</ele>
        <time>2025-11-07T15:46:17.146Z</time>
      </trkpt>
      <trkpt lat="50.69592" lon="2.16457">
        <ele>91.14</ele>
        <time>2025-11-07T15:46:18.301Z</time>
      </trkpt>
      <trkpt lat="50.69579" lon="2.16428">
        <ele>91.44</ele>
        <time>2025-11-07T15:46:19.472Z</time>
      </trkpt>
      <trkpt lat="50.69566" lon="2.16399">
        <ele>91.73</ele>
        <time>2025-11-07T15:46:20.660Z</time>
      </trkpt>
      <trkpt lat="50.69552" lon="2.16368">
        <ele>92.08</ele>
        <time>2025-11-07T15:46:21.865Z</time>
      </trkpt>
      <trkpt lat="50.69542" lon="2.16334">
        <ele>92.4</ele>
        <time>2025-11-07T15:46:23.088Z</time>
      </trkpt>
      <trkpt lat="50.69525" lon="2.16309">
        <ele>92.67</ele>
        <time>2025-11-07T15:46:24.328Z</time>
      </trkpt>
      <trkpt lat="50.69515" lon="2.16276">
        <ele>92.97</ele>
        <time>2025-11-07T15:46:25.585Z</time>
      </trkpt>
      <trkpt lat="50.69504" lon="2.16244">
        <ele>93.26</ele>
        <time>2025-11-07T15:46:26.859Z</time>
      </trkpt>
      <trkpt lat="50.69493" lon="2.16212">
        <ele>93.55</ele>
        <time>2025-11-07T15:46:28.150Z</time>
      </trkpt>
      <trkpt lat="50.69484" lon="2.16178">
        <ele>93.84</ele>
        <time>2025-11-07T15:46:29.458Z</time>
      </trkpt>
      <trkpt lat="50.69474" lon="2.16144">
        <ele>94.06</ele>
        <time>2025-11-07T15:46:30.784Z</time>
      </trkpt>
      <trkpt lat="50.69465" lon="2.1611">
        <ele>94.33</ele>
        <time>2025-11-07T15:46:32.127Z</time>
      </trkpt>
      <trkpt lat="50.69451" lon="2.16082">
        <ele>94.64</ele>
        <time>2025-11-07T15:46:33.486Z</time>
      </trkpt>
      <trkpt lat="50.69439" lon="2.16052">
        <ele>95</ele>
        <time>2025-11-07T15:46:34.862Z</time>
      </trkpt>
      <trkpt lat="50.69432" lon="2.16017">
        <ele>95.39</ele>
        <time>2025-11-07T15:46:36.255Z</time>
      </trkpt>
      <trkpt lat="50.69422" lon="2.15984">
        <ele>95.84</ele>
        <time>2025-11-07T15:46:37.665Z</time>
      </trkpt>
      <trkpt lat="50.69414" lon="2.15949">
        <ele>96.45</ele>
        <time>2025-11-07T15:46:39.092Z</time>
      </trkpt>
      <trkpt lat="50.69411" lon="2.15913">
        <ele>97.17</ele>
        <time>2025-11-07T15:46:40.536Z</time>
      </trkpt>
      <trkpt lat="50.69404" lon="2.15878">
        <ele>98.03</ele>
        <time>2025-11-07T15:46:41.997Z</time>
      </trkpt>
      <trkpt lat="50.69398" lon="2.15843">
        <ele>98.99</ele>
        <time>2025-11-07T15:46:43.475Z</time>
      </trkpt>
      <trkpt lat="50.69392" lon="2.15807">
        <ele>100.09</ele>
        <time>2025-11-07T15:46:44.970Z</time>
      </trkpt>
      <trkpt lat="50.69379" lon="2.15776">
        <ele>101.21</ele>
        <time>2025-11-07T15:46:46.483Z</time>
      </trkpt>
      <trkpt lat="50.69373" lon="2.15741">
        <ele>102.52</ele>
        <time>2025-11-07T15:46:48.013Z</time>
      </trkpt>
      <trkpt lat="50.69362" lon="2.15709">
        <ele>103.98</ele>
        <time>2025-11-07T15:46:49.560Z</time>
      </trkpt>
      <trkpt lat="50.69356" lon="2.15674">
        <ele>105.59</ele>
        <time>2025-11-07T15:46:51.124Z</time>
      </trkpt>
      <trkpt lat="50.69349" lon="2.15638">
        <ele>107.34</ele>
        <time>2025-11-07T15:46:52.705Z</time>
      </trkpt>
      <trkpt lat="50.69335" lon="2.15608">
        <ele>109.14</ele>
        <time>2025-11-07T15:46:54.303Z</time>
      </trkpt>
      <trkpt lat="50.69326" lon="2.15575">
        <ele>111.03</ele>
        <time>2025-11-07T15:46:55.918Z</time>
      </trkpt>
      <trkpt lat="50.69313" lon="2.15544">
        <ele>112.98</ele>
        <time>2025-11-07T15:46:57.551Z</time>
      </trkpt>
      <trkpt lat="50.69301" lon="2.15513">
        <ele>114.95</ele>
        <time>2025-11-07T15:46:59.200Z</time>
      </trkpt>
      <trkpt lat="50.69289" lon="2.15483">
        <ele>116.89</ele>
        <time>2025-11-07T15:47:00.866Z</time>
      </trkpt>
      <trkpt lat="50.69276" lon="2.15452">
        <ele>118.88</ele>
        <time>2025-11-07T15:47:02.549Z</time>
      </trkpt>
      <trkpt lat="50.69265" lon="2.1542">
        <ele>120.82</ele>
        <time>2025-11-07T15:47:04.249Z</time>
      </trkpt>
      <trkpt lat="50.69259" lon="2.15385">
        <ele>122.66</ele>
        <time>2025-11-07T15:47:05.966Z</time>
      </trkpt>
      <trkpt lat="50.69249" lon="2.15352">
        <ele>124.44</ele>
        <time>2025-11-07T15:47:07.700Z</time>
      </trkpt>
      <trkpt lat="50.69241" lon="2.15319">
        <ele>126.08</ele>
        <time>2025-11-07T15:47:09.451Z</time>
      </trkpt>
      <trkpt lat="50.69233" lon="2.15285">
        <ele>127.6</ele>
        <time>2025-11-07T15:47:11.219Z</time>
      </trkpt>
      <trkpt lat="50.69225" lon="2.15252">
        <ele>128.97</ele>
        <time>2025-11-07T15:47:13.003Z</time>
      </trkpt>
      <trkpt lat="50.69214" lon="2.15219">
        <ele>130.21</ele>
        <time>2025-11-07T15:47:14.805Z</time>
      </trkpt>
      <trkpt lat="50.69203" lon="2.15187">
        <ele>131.22</ele>
        <time>2025-11-07T15:47:16.623Z</time>
      </trkpt>
      <trkpt lat="50.69191" lon="2.15155">
        <ele>131.99</ele>
        <time>2025-11-07T15:47:18.459Z</time>
      </trkpt>
      <trkpt lat="50.6918" lon="2.15123">
        <ele>132.53</ele>
        <time>2025-11-07T15:47:20.312Z</time>
      </trkpt>
      <trkpt lat="50.69167" lon="2.15091">
        <ele>132.75</ele>
        <time>2025-11-07T15:47:22.182Z</time>
      </trkpt>
      <trkpt lat="50.69153" lon="2.15062">
        <ele>132.71</ele>
        <time>2025-11-07T15:47:24.070Z</time>
      </trkpt>
      <trkpt lat="50.69139" lon="2.15034">
        <ele>132.36</ele>
        <time>2025-11-07T15:47:25.974Z</time>
      </trkpt>
      <trkpt lat="50.69124" lon="2.15005">
        <ele>131.63</ele>
        <time>2025-11-07T15:47:27.896Z</time>
      </trkpt>
      <trkpt lat="50.69107" lon="2.1498">
        <ele>130.53</ele>
        <time>2025-11-07T15:47:29.835Z</time>
      </trkpt>
      <trkpt lat="50.69094" lon="2.1495">
        <ele>129.02</ele>
        <time>2025-11-07T15:47:31.791Z</time>
      </trkpt>
      <trkpt lat="50.69085" lon="2.14917">
        <ele>127.1</ele>
        <time>2025-11-07T15:47:33.763Z</time>
      </trkpt>
      <trkpt lat="50.69077" lon="2.14884">
        <ele>124.84</ele>
        <time>2025-11-07T15:47:35.752Z</time>
      </trkpt>
      <trkpt lat="50.69064" lon="2.14853">
        <ele>122.28</ele>
        <time>2025-11-07T15:47:37.758Z</time>
      </trkpt>
      <trkpt lat="50.69053" lon="2.14822">
        <ele>119.46</ele>
        <time>2025-11-07T15:47:39.781Z</time>
      </trkpt>
      <trkpt lat="50.69041" lon="2.14791">
        <ele>116.39</ele>
        <time>2025-11-07T15:47:41.821Z</time>
      </trkpt>
      <trkpt lat="50.69023" lon="2.14769">
        <ele>113.06</ele>
        <time>2025-11-07T15:47:43.877Z</time>
      </trkpt>
      <trkpt lat="50.69" lon="2.14761">
        <ele>109.47</ele>
        <time>2025-11-07T15:47:45.950Z</time>
      </trkpt>
      <trkpt lat="50.68978" lon="2.1476">
        <ele>105.82</ele>
        <time>2025-11-07T15:47:48.040Z</time>
      </trkpt>
      <trkpt lat="50.68955" lon="2.14753">
        <ele>102.01</ele>
        <time>2025-11-07T15:47:50.147Z</time>
      </trkpt>
      <trkpt lat="50.68932" lon="2.14749">
        <ele>98.1</ele>
        <time>2025-11-07T15:47:52.271Z</time>
      </trkpt>
      <trkpt lat="50.68918" lon="2.14748">
        <ele>94.34</ele>
        <time>2025-11-07T15:47:54.406Z</time>
      </trkpt>
      <trkpt lat="50.68895" lon="2.1474">
        <ele>90.54</ele>
        <time>2025-11-07T15:47:56.558Z</time>
      </trkpt>
      <trkpt lat="50.68873" lon="2.14731">
        <ele>86.78</ele>
        <time>2025-11-07T15:47:58.726Z</time>
      </trkpt>
      <trkpt lat="50.6885" lon="2.14721">
        <ele>82.87</ele>
        <time>2025-11-07T15:48:00.912Z</time>
      </trkpt>
      <trkpt lat="50.68829" lon="2.1471">
        <ele>79.04</ele>
        <time>2025-11-07T15:48:03.114Z</time>
      </trkpt>
      <trkpt lat="50.6881" lon="2.1469">
        <ele>75.35</ele>
        <time>2025-11-07T15:48:05.333Z</time>
      </trkpt>
      <trkpt lat="50.68789" lon="2.14674">
        <ele>71.8</ele>
        <time>2025-11-07T15:48:07.569Z</time>
      </trkpt>
      <trkpt lat="50.68769" lon="2.14658">
        <ele>68.44</ele>
        <time>2025-11-07T15:48:09.822Z</time>
      </trkpt>
      <trkpt lat="50.68748" lon="2.14641">
        <ele>65.21</ele>
        <time>2025-11-07T15:48:12.092Z</time>
      </trkpt>
      <trkpt lat="50.68726" lon="2.14628">
        <ele>62.16</ele>
        <time>2025-11-07T15:48:14.379Z</time>
      </trkpt>
      <trkpt lat="50.68703" lon="2.14621">
        <ele>59.28</ele>
        <time>2025-11-07T15:48:16.683Z</time>
      </trkpt>
      <trkpt lat="50.68682" lon="2.14604">
        <ele>56.49</ele>
        <time>2025-11-07T15:48:19.004Z</time>
      </trkpt>
      <trkpt lat="50.6866" lon="2.14592">
        <ele>53.98</ele>
        <time>2025-11-07T15:48:21.342Z</time>
      </trkpt>
      <trkpt lat="50.6864" lon="2.14577">
        <ele>51.71</ele>
        <time>2025-11-07T15:48:23.697Z</time>
      </trkpt>
      <trkpt lat="50.68617" lon="2.14568">
        <ele>49.71</ele>
        <time>2025-11-07T15:48:26.069Z</time>
      </trkpt>
      <trkpt lat="50.68597" lon="2.14549">
        <ele>47.98</ele>
        <time>2025-11-07T15:48:28.459Z</time>
      </trkpt>
      <trkpt lat="50.68577" lon="2.14534">
        <ele>46.51</ele>
        <time>2025-11-07T15:48:30.865Z</time>
      </trkpt>
      <trkpt lat="50.68577" lon="2.14534">
        <ele>45.35</ele>
        <time>2025-11-07T15:48:33.271Z</time>
      </trkpt>
      <trkpt lat="50.68587" lon="2.14498">
        <ele>44.36</ele>
        <time>2025-11-07T15:48:35.695Z</time>
      </trkpt>
      <trkpt lat="50.68597" lon="2.14463">
        <ele>43.64</ele>
        <time>2025-11-07T15:48:38.137Z</time>
      </trkpt>
      <trkpt lat="50.68607" lon="2.14427">
        <ele>43.05</ele>
        <time>2025-11-07T15:48:40.597Z</time>
      </trkpt>
      <trkpt lat="50.68618" lon="2.14392">
        <ele>42.7</ele>
        <time>2025-11-07T15:48:43.075Z</time>
      </trkpt>
      <trkpt lat="50.68625" lon="2.14349">
        <ele>42.58</ele>
        <time>2025-11-07T15:48:45.574Z</time>
      </trkpt>
      <trkpt lat="50.68633" lon="2.14306">
        <ele>42.62</ele>
        <time>2025-11-07T15:48:48.094Z</time>
      </trkpt>
      <trkpt lat="50.6864" lon="2.14263">
        <ele>42.76</ele>
        <time>2025-11-07T15:48:50.635Z</time>
      </trkpt>
      <trkpt lat="50.68648" lon="2.14221">
        <ele>43.1</ele>
        <time>2025-11-07T15:48:53.197Z</time>
      </trkpt>
      <trkpt lat="50.68637" lon="2.14221">
        <ele>43.45</ele>
        <time>2025-11-07T15:48:55.766Z</time>
      </trkpt>
      <trkpt lat="50.68609" lon="2.14223">
        <ele>43.86</ele>
        <time>2025-11-07T15:48:58.356Z</time>
      </trkpt>
      <trkpt lat="50.68592" lon="2.14225">
        <ele>44.47</ele>
        <time>2025-11-07T15:49:00.959Z</time>
      </trkpt>
      <trkpt lat="50.68565" lon="2.14227">
        <ele>45.14</ele>
        <time>2025-11-07T15:49:03.581Z</time>
      </trkpt>
      <trkpt lat="50.68538" lon="2.14229">
        <ele>46.05</ele>
        <time>2025-11-07T15:49:06.223Z</time>
      </trkpt>
      <trkpt lat="50.6853" lon="2.14221">
        <ele>46.98</ele>
        <time>2025-11-07T15:49:08.872Z</time>
      </trkpt>
      <trkpt lat="50.68519" lon="2.14214">
        <ele>48.04</ele>
        <time>2025-11-07T15:49:11.530Z</time>
      </trkpt>
      <trkpt lat="50.68517" lon="2.14212">
        <ele>49.02</ele>
        <time>2025-11-07T15:49:14.190Z</time>
      </trkpt>
      <trkpt lat="50.68513" lon="2.14242">
        <ele>50.04</ele>
        <time>2025-11-07T15:49:16.864Z</time>
      </trkpt>
      <trkpt lat="50.6851" lon="2.14272">
        <ele>51.02</ele>
        <time>2025-11-07T15:49:19.552Z</time>
      </trkpt>
      <trkpt lat="50.68504" lon="2.14293">
        <ele>52.01</ele>
        <time>2025-11-07T15:49:22.251Z</time>
      </trkpt>
      <trkpt lat="50.685" lon="2.14306">
        <ele>52.91</ele>
        <time>2025-11-07T15:49:24.957Z</time>
      </trkpt>
      <trkpt lat="50.68493" lon="2.14345">
        <ele>53.78</ele>
        <time>2025-11-07T15:49:27.682Z</time>
      </trkpt>
      <trkpt lat="50.68487" lon="2.1439">
        <ele>54.58</ele>
        <time>2025-11-07T15:49:30.428Z</time>
      </trkpt>
      <trkpt lat="50.68482" lon="2.14416">
        <ele>55.27</ele>
        <time>2025-11-07T15:49:33.187Z</time>
      </trkpt>
      <trkpt lat="50.68478" lon="2.14429">
        <ele>55.87</ele>
        <time>2025-11-07T15:49:35.952Z</time>
      </trkpt>
      <trkpt lat="50.6847" lon="2.14457">
        <ele>56.39</ele>
        <time>2025-11-07T15:49:38.732Z</time>
      </trkpt>
      <trkpt lat="50.68465" lon="2.14497">
        <ele>56.68</ele>
        <time>2025-11-07T15:49:41.531Z</time>
      </trkpt>
      <trkpt lat="50.68459" lon="2.14534">
        <ele>56.84</ele>
        <time>2025-11-07T15:49:44.348Z</time>
      </trkpt>
      <trkpt lat="50.68451" lon="2.14568">
        <ele>56.97</ele>
        <time>2025-11-07T15:49:47.182Z</time>
      </trkpt>
      <trkpt lat="50.68444" lon="2.14602">
        <ele>57.05</ele>
        <time>2025-11-07T15:49:50.033Z</time>
      </trkpt>
      <trkpt lat="50.68444" lon="2.14602">
        <ele>56.89</ele>
        <time>2025-11-07T15:49:52.884Z</time>
      </trkpt>
      <trkpt lat="50.68437" lon="2.14633">
        <ele>56.66</ele>
        <time>2025-11-07T15:49:55.749Z</time>
      </trkpt>
      <trkpt lat="50.68431" lon="2.1466">
        <ele>56.19</ele>
        <time>2025-11-07T15:49:58.628Z</time>
      </trkpt>
      <trkpt lat="50.68424" lon="2.14678">
        <ele>55.65</ele>
        <time>2025-11-07T15:50:01.517Z</time>
      </trkpt>
      <trkpt lat="50.68412" lon="2.14705">
        <ele>54.94</ele>
        <time>2025-11-07T15:50:04.422Z</time>
      </trkpt>
      <trkpt lat="50.6839" lon="2.14728">
        <ele>54.27</ele>
        <time>2025-11-07T15:50:07.346Z</time>
      </trkpt>
      <trkpt lat="50.68369" lon="2.1475">
        <ele>53.52</ele>
        <time>2025-11-07T15:50:10.288Z</time>
      </trkpt>
      <trkpt lat="50.68347" lon="2.14772">
        <ele>52.86</ele>
        <time>2025-11-07T15:50:13.249Z</time>
      </trkpt>
      <trkpt lat="50.6833" lon="2.14804">
        <ele>52.23</ele>
        <time>2025-11-07T15:50:16.230Z</time>
      </trkpt>
      <trkpt lat="50.68317" lon="2.14843">
        <ele>51.55</ele>
        <time>2025-11-07T15:50:19.231Z</time>
      </trkpt>
      <trkpt lat="50.68306" lon="2.14865">
        <ele>50.91</ele>
        <time>2025-11-07T15:50:22.245Z</time>
      </trkpt>
      <trkpt lat="50.68296" lon="2.14888">
        <ele>50.37</ele>
        <time>2025-11-07T15:50:25.272Z</time>
      </trkpt>
      <trkpt lat="50.68287" lon="2.14918">
        <ele>49.89</ele>
        <time>2025-11-07T15:50:28.315Z</time>
      </trkpt>
      <trkpt lat="50.68285" lon="2.14957">
        <ele>49.44</ele>
        <time>2025-11-07T15:50:31.376Z</time>
      </trkpt>
      <trkpt lat="50.68283" lon="2.14997">
        <ele>48.91</ele>
        <time>2025-11-07T15:50:34.456Z</time>
      </trkpt>
      <trkpt lat="50.68281" lon="2.15036">
        <ele>48.53</ele>
        <time>2025-11-07T15:50:37.554Z</time>
      </trkpt>
      <trkpt lat="50.6827" lon="2.15057">
        <ele>48.32</ele>
        <time>2025-11-07T15:50:40.665Z</time>
      </trkpt>
      <trkpt lat="50.68259" lon="2.15079">
        <ele>48.21</ele>
        <time>2025-11-07T15:50:43.789Z</time>
      </trkpt>
      <trkpt lat="50.68242" lon="2.15098">
        <ele>48.13</ele>
        <time>2025-11-07T15:50:46.928Z</time>
      </trkpt>
      <trkpt lat="50.68225" lon="2.15117">
        <ele>48.21</ele>
        <time>2025-11-07T15:50:50.083Z</time>
      </trkpt>
      <trkpt lat="50.68208" lon="2.15137">
        <ele>48.47</ele>
        <time>2025-11-07T15:50:53.253Z</time>
      </trkpt>
      <trkpt lat="50.68199" lon="2.15141">
        <ele>48.73</ele>
        <time>2025-11-07T15:50:56.430Z</time>
      </trkpt>
      <trkpt lat="50.68195" lon="2.15139">
        <ele>49.01</ele>
        <time>2025-11-07T15:50:59.610Z</time>
      </trkpt>
      <trkpt lat="50.68191" lon="2.15135">
        <ele>49.31</ele>
        <time>2025-11-07T15:51:02.794Z</time>
      </trkpt>
      <trkpt lat="50.68191" lon="2.15135">
        <ele>49.61</ele>
        <time>2025-11-07T15:51:05.978Z</time>
      </trkpt>
      <trkpt lat="50.68176" lon="2.15117">
        <ele>50.04</ele>
        <time>2025-11-07T15:51:09.175Z</time>
      </trkpt>
      <trkpt lat="50.68163" lon="2.15122">
        <ele>50.47</ele>
        <time>2025-11-07T15:51:12.382Z</time>
      </trkpt>
      <trkpt lat="50.68141" lon="2.1515">
        <ele>50.76</ele>
        <time>2025-11-07T15:51:15.610Z</time>
      </trkpt>
      <trkpt lat="50.68119" lon="2.15179">
        <ele>50.95</ele>
        <time>2025-11-07T15:51:18.859Z</time>
      </trkpt>
      <trkpt lat="50.68097" lon="2.15207">
        <ele>51.18</ele>
        <time>2025-11-07T15:51:22.128Z</time>
      </trkpt>
      <trkpt lat="50.68085" lon="2.15223">
        <ele>51.46</ele>
        <time>2025-11-07T15:51:25.409Z</time>
      </trkpt>
      <trkpt lat="50.68079" lon="2.15229">
        <ele>51.72</ele>
        <time>2025-11-07T15:51:28.695Z</time>
      </trkpt>
      <trkpt lat="50.68066" lon="2.15255">
        <ele>51.95</ele>
        <time>2025-11-07T15:51:31.997Z</time>
      </trkpt>
      <trkpt lat="50.68053" lon="2.1525">
        <ele>52.15</ele>
        <time>2025-11-07T15:51:35.308Z</time>
      </trkpt>
      <trkpt lat="50.68051" lon="2.15276">
        <ele>52.18</ele>
        <time>2025-11-07T15:51:38.631Z</time>
      </trkpt>
      <trkpt lat="50.68058" lon="2.15321">
        <ele>52.04</ele>
        <time>2025-11-07T15:51:41.976Z</time>
      </trkpt>
      <trkpt lat="50.68053" lon="2.1533">
        <ele>52.1</ele>
        <time>2025-11-07T15:51:45.326Z</time>
      </trkpt>
      <trkpt lat="50.68041" lon="2.15347">
        <ele>52.13</ele>
        <time>2025-11-07T15:51:48.688Z</time>
      </trkpt>
      <trkpt lat="50.6803" lon="2.15364">
        <ele>52.15</ele>
        <time>2025-11-07T15:51:52.062Z</time>
      </trkpt>
      <trkpt lat="50.68012" lon="2.15388">
        <ele>52.2</ele>
        <time>2025-11-07T15:51:55.452Z</time>
      </trkpt>
      <trkpt lat="50.67995" lon="2.15411">
        <ele>52.28</ele>
        <time>2025-11-07T15:51:58.859Z</time>
      </trkpt>
      <trkpt lat="50.67984" lon="2.15442">
        <ele>52.4</ele>
        <time>2025-11-07T15:52:02.282Z</time>
      </trkpt>
      <trkpt lat="50.67976" lon="2.15464">
        <ele>52.44</ele>
        <time>2025-11-07T15:52:05.717Z</time>
      </trkpt>
      <trkpt lat="50.67967" lon="2.15487">
        <ele>52.48</ele>
        <time>2025-11-07T15:52:09.165Z</time>
      </trkpt>
      <trkpt lat="50.67955" lon="2.1551">
        <ele>52.39</ele>
        <time>2025-11-07T15:52:12.627Z</time>
      </trkpt>
      <trkpt lat="50.67943" lon="2.15533">
        <ele>52.3</ele>
        <time>2025-11-07T15:52:16.103Z</time>
      </trkpt>
      <trkpt lat="50.67937" lon="2.15542">
        <ele>52.21</ele>
        <time>2025-11-07T15:52:19.585Z</time>
      </trkpt>
      <trkpt lat="50.67931" lon="2.15568">
        <ele>52.1</ele>
        <time>2025-11-07T15:52:23.080Z</time>
      </trkpt>
      <trkpt lat="50.67918" lon="2.15597">
        <ele>51.93</ele>
        <time>2025-11-07T15:52:26.591Z</time>
      </trkpt>
      <trkpt lat="50.67905" lon="2.15626">
        <ele>51.8</ele>
        <time>2025-11-07T15:52:30.119Z</time>
      </trkpt>
      <trkpt lat="50.67901" lon="2.15655">
        <ele>51.7</ele>
        <time>2025-11-07T15:52:33.660Z</time>
      </trkpt>
      <trkpt lat="50.67897" lon="2.15684">
        <ele>51.68</ele>
        <time>2025-11-07T15:52:37.215Z</time>
      </trkpt>
      <trkpt lat="50.67897" lon="2.15684">
        <ele>51.62</ele>
        <time>2025-11-07T15:52:40.770Z</time>
      </trkpt>
      <trkpt lat="50.67889" lon="2.15712">
        <ele>51.73</ele>
        <time>2025-11-07T15:52:44.340Z</time>
      </trkpt>
      <trkpt lat="50.67882" lon="2.1574">
        <ele>51.73</ele>
        <time>2025-11-07T15:52:47.924Z</time>
      </trkpt>
      <trkpt lat="50.67876" lon="2.15767">
        <ele>51.63</ele>
        <time>2025-11-07T15:52:51.521Z</time>
      </trkpt>
      <trkpt lat="50.67871" lon="2.15793">
        <ele>51.46</ele>
        <time>2025-11-07T15:52:55.131Z</time>
      </trkpt>
      <trkpt lat="50.67869" lon="2.15821">
        <ele>51.35</ele>
        <time>2025-11-07T15:52:58.754Z</time>
      </trkpt>
      <trkpt lat="50.67869" lon="2.15821">
        <ele>51.35</ele>
        <time>2025-11-07T15:53:02.377Z</time>
      </trkpt>
      <trkpt lat="50.67863" lon="2.1584">
        <ele>51.36</ele>
        <time>2025-11-07T15:53:06.010Z</time>
      </trkpt>
      <trkpt lat="50.67856" lon="2.15864">
        <ele>51.44</ele>
        <time>2025-11-07T15:53:09.655Z</time>
      </trkpt>
      <trkpt lat="50.67843" lon="2.15875">
        <ele>51.53</ele>
        <time>2025-11-07T15:53:13.311Z</time>
      </trkpt>
      <trkpt lat="50.67833" lon="2.159">
        <ele>51.69</ele>
        <time>2025-11-07T15:53:16.980Z</time>
      </trkpt>
      <trkpt lat="50.67824" lon="2.15924">
        <ele>51.78</ele>
        <time>2025-11-07T15:53:20.663Z</time>
      </trkpt>
      <trkpt lat="50.67824" lon="2.15924">
        <ele>51.91</ele>
        <time>2025-11-07T15:53:24.346Z</time>
      </trkpt>
      <trkpt lat="50.67811" lon="2.15963">
        <ele>52.08</ele>
        <time>2025-11-07T15:53:28.049Z</time>
      </trkpt>
      <trkpt lat="50.67811" lon="2.15963">
        <ele>52.23</ele>
        <time>2025-11-07T15:53:31.752Z</time>
      </trkpt>
      <trkpt lat="50.67806" lon="2.15971">
        <ele>52.37</ele>
        <time>2025-11-07T15:53:35.460Z</time>
      </trkpt>
      <trkpt lat="50.67806" lon="2.15971">
        <ele>52.52</ele>
        <time>2025-11-07T15:53:39.168Z</time>
      </trkpt>
      <trkpt lat="50.67798" lon="2.15991">
        <ele>52.68</ele>
        <time>2025-11-07T15:53:42.887Z</time>
      </trkpt>
      <trkpt lat="50.67783" lon="2.16014">
        <ele>52.88</ele>
        <time>2025-11-07T15:53:46.622Z</time>
      </trkpt>
      <trkpt lat="50.67783" lon="2.16014">
        <ele>53</ele>
        <time>2025-11-07T15:53:50.357Z</time>
      </trkpt>
      <trkpt lat="50.6777" lon="2.16036">
        <ele>53.23</ele>
        <time>2025-11-07T15:53:54.106Z</time>
      </trkpt>
      <trkpt lat="50.67761" lon="2.16058">
        <ele>53.35</ele>
        <time>2025-11-07T15:53:57.867Z</time>
      </trkpt>
      <trkpt lat="50.67753" lon="2.16081">
        <ele>53.38</ele>
        <time>2025-11-07T15:54:01.640Z</time>
      </trkpt>
      <trkpt lat="50.67731" lon="2.16111">
        <ele>53.37</ele>
        <time>2025-11-07T15:54:05.434Z</time>
      </trkpt>
      <trkpt lat="50.67721" lon="2.16113">
        <ele>53.32</ele>
        <time>2025-11-07T15:54:09.236Z</time>
      </trkpt>
      <trkpt lat="50.6771" lon="2.16117">
        <ele>53.22</ele>
        <time>2025-11-07T15:54:13.046Z</time>
      </trkpt>
      <trkpt lat="50.67682" lon="2.1613">
        <ele>53.07</ele>
        <time>2025-11-07T15:54:16.878Z</time>
      </trkpt>
      <trkpt lat="50.67664" lon="2.16133">
        <ele>52.94</ele>
        <time>2025-11-07T15:54:20.723Z</time>
      </trkpt>
      <trkpt lat="50.67646" lon="2.16137">
        <ele>52.83</ele>
        <time>2025-11-07T15:54:24.582Z</time>
      </trkpt>
      <trkpt lat="50.6762" lon="2.16141">
        <ele>52.7</ele>
        <time>2025-11-07T15:54:28.460Z</time>
      </trkpt>
      <trkpt lat="50.67594" lon="2.16145">
        <ele>52.67</ele>
        <time>2025-11-07T15:54:32.357Z</time>
      </trkpt>
      <trkpt lat="50.67573" lon="2.16155">
        <ele>52.54</ele>
        <time>2025-11-07T15:54:36.270Z</time>
      </trkpt>
      <trkpt lat="50.67551" lon="2.16164">
        <ele>52.34</ele>
        <time>2025-11-07T15:54:40.199Z</time>
      </trkpt>
      <trkpt lat="50.6753" lon="2.16173">
        <ele>52.13</ele>
        <time>2025-11-07T15:54:44.145Z</time>
      </trkpt>
      <trkpt lat="50.67521" lon="2.1619">
        <ele>51.97</ele>
        <time>2025-11-07T15:54:48.101Z</time>
      </trkpt>
      <trkpt lat="50.67532" lon="2.1619">
        <ele>51.79</ele>
        <time>2025-11-07T15:54:52.065Z</time>
      </trkpt>
      <trkpt lat="50.67563" lon="2.16192">
        <ele>51.71</ele>
        <time>2025-11-07T15:54:56.052Z</time>
      </trkpt>
      <trkpt lat="50.67594" lon="2.16195">
        <ele>51.62</ele>
        <time>2025-11-07T15:55:00.061Z</time>
      </trkpt>
      <trkpt lat="50.67598" lon="2.16199">
        <ele>51.47</ele>
        <time>2025-11-07T15:55:04.074Z</time>
      </trkpt>
      <trkpt lat="50.676" lon="2.16208">
        <ele>51.32</ele>
        <time>2025-11-07T15:55:08.091Z</time>
      </trkpt>
      <trkpt lat="50.67598" lon="2.16216">
        <ele>51.21</ele>
        <time>2025-11-07T15:55:12.113Z</time>
      </trkpt>
      <trkpt lat="50.67596" lon="2.16233">
        <ele>51.12</ele>
        <time>2025-11-07T15:55:16.143Z</time>
      </trkpt>
      <trkpt lat="50.67596" lon="2.16244">
        <ele>51.05</ele>
        <time>2025-11-07T15:55:20.178Z</time>
      </trkpt>
      <trkpt lat="50.67613" lon="2.16244">
        <ele>50.95</ele>
        <time>2025-11-07T15:55:24.226Z</time>
      </trkpt>
      <trkpt lat="50.67637" lon="2.16232">
        <ele>50.84</ele>
        <time>2025-11-07T15:55:28.292Z</time>
      </trkpt>
      <trkpt lat="50.67661" lon="2.1622">
        <ele>50.83</ele>
        <time>2025-11-07T15:55:32.376Z</time>
      </trkpt>
      <trkpt lat="50.67687" lon="2.16211">
        <ele>50.87</ele>
        <time>2025-11-07T15:55:36.480Z</time>
      </trkpt>
      <trkpt lat="50.67714" lon="2.16201">
        <ele>50.94</ele>
        <time>2025-11-07T15:55:40.604Z</time>
      </trkpt>
      <trkpt lat="50.67736" lon="2.1619">
        <ele>51.06</ele>
        <time>2025-11-07T15:55:44.745Z</time>
      </trkpt>
      <trkpt lat="50.67757" lon="2.1618">
        <ele>51.11</ele>
        <time>2025-11-07T15:55:48.902Z</time>
      </trkpt>
      <trkpt lat="50.67781" lon="2.16175">
        <ele>51.18</ele>
        <time>2025-11-07T15:55:53.077Z</time>
      </trkpt>
      <trkpt lat="50.67804" lon="2.16171">
        <ele>51.33</ele>
        <time>2025-11-07T15:55:57.269Z</time>
      </trkpt>
      <trkpt lat="50.67782" lon="2.16194">
        <ele>51.47</ele>
        <time>2025-11-07T15:56:01.481Z</time>
      </trkpt>
      <trkpt lat="50.6776" lon="2.16217">
        <ele>51.7</ele>
        <time>2025-11-07T15:56:05.712Z</time>
      </trkpt>
      <trkpt lat="50.67738" lon="2.1624">
        <ele>51.88</ele>
        <time>2025-11-07T15:56:09.963Z</time>
      </trkpt>
      <trkpt lat="50.67721" lon="2.16257">
        <ele>52.12</ele>
        <time>2025-11-07T15:56:14.229Z</time>
      </trkpt>
      <trkpt lat="50.67703" lon="2.16274">
        <ele>52.36</ele>
        <time>2025-11-07T15:56:18.510Z</time>
      </trkpt>
      <trkpt lat="50.67703" lon="2.16274">
        <ele>52.56</ele>
        <time>2025-11-07T15:56:22.791Z</time>
      </trkpt>
      <trkpt lat="50.67683" lon="2.16294">
        <ele>52.73</ele>
        <time>2025-11-07T15:56:27.089Z</time>
      </trkpt>
      <trkpt lat="50.67663" lon="2.16313">
        <ele>52.96</ele>
        <time>2025-11-07T15:56:31.405Z</time>
      </trkpt>
      <trkpt lat="50.67643" lon="2.16333">
        <ele>53.23</ele>
        <time>2025-11-07T15:56:35.738Z</time>
      </trkpt>
      <trkpt lat="50.67623" lon="2.16353">
        <ele>53.39</ele>
        <time>2025-11-07T15:56:40.088Z</time>
      </trkpt>
      <trkpt lat="50.67623" lon="2.16353">
        <ele>53.46</ele>
        <time>2025-11-07T15:56:44.438Z</time>
      </trkpt>
      <trkpt lat="50.67623" lon="2.16353">
        <ele>53.49</ele>
        <time>2025-11-07T15:56:48.788Z</time>
      </trkpt>
      <trkpt lat="50.67618" lon="2.16358">
        <ele>53.49</ele>
        <time>2025-11-07T15:56:53.143Z</time>
      </trkpt>
      <trkpt lat="50.67618" lon="2.16358">
        <ele>53.44</ele>
        <time>2025-11-07T15:56:57.498Z</time>
      </trkpt>
      <trkpt lat="50.67598" lon="2.16374">
        <ele>53.24</ele>
        <time>2025-11-07T15:57:01.869Z</time>
      </trkpt>
      <trkpt lat="50.67579" lon="2.1639">
        <ele>53.07</ele>
        <time>2025-11-07T15:57:06.256Z</time>
      </trkpt>
      <trkpt lat="50.67579" lon="2.1639">
        <ele>52.94</ele>
        <time>2025-11-07T15:57:10.643Z</time>
      </trkpt>
      <trkpt lat="50.67554" lon="2.16412">
        <ele>52.72</ele>
        <time>2025-11-07T15:57:15.051Z</time>
      </trkpt>
      <trkpt lat="50.6753" lon="2.16435">
        <ele>52.47</ele>
        <time>2025-11-07T15:57:19.480Z</time>
      </trkpt>
      <trkpt lat="50.6753" lon="2.16435">
        <ele>52.33</ele>
        <time>2025-11-07T15:57:23.909Z</time>
      </trkpt>
      <trkpt lat="50.67506" lon="2.16448">
        <ele>52.21</ele>
        <time>2025-11-07T15:57:28.356Z</time>
      </trkpt>
      <trkpt lat="50.67482" lon="2.16461">
        <ele>52.09</ele>
        <time>2025-11-07T15:57:32.821Z</time>
      </trkpt>
      <trkpt lat="50.67482" lon="2.16461">
        <ele>51.99</ele>
        <time>2025-11-07T15:57:37.286Z</time>
      </trkpt>
      <trkpt lat="50.67459" lon="2.16462">
        <ele>51.94</ele>
        <time>2025-11-07T15:57:41.769Z</time>
      </trkpt>
      <trkpt lat="50.67435" lon="2.16463">
        <ele>51.92</ele>
        <time>2025-11-07T15:57:46.269Z</time>
      </trkpt>
      <trkpt lat="50.67435" lon="2.16463">
        <ele>51.84</ele>
        <time>2025-11-07T15:57:50.769Z</time>
      </trkpt>
      <trkpt lat="50.67405" lon="2.16453">
        <ele>51.88</ele>
        <time>2025-11-07T15:57:55.292Z</time>
      </trkpt>
      <trkpt lat="50.67375" lon="2.16444">
        <ele>51.86</ele>
        <time>2025-11-07T15:57:59.837Z</time>
      </trkpt>
      <trkpt lat="50.67345" lon="2.16435">
        <ele>51.71</ele>
        <time>2025-11-07T15:58:04.405Z</time>
      </trkpt>
      <trkpt lat="50.67315" lon="2.16425">
        <ele>51.63</ele>
        <time>2025-11-07T15:58:08.995Z</time>
      </trkpt>
      <trkpt lat="50.67285" lon="2.16416">
        <ele>51.64</ele>
        <time>2025-11-07T15:58:13.608Z</time>
      </trkpt>
      <trkpt lat="50.67255" lon="2.16407">
        <ele>51.49</ele>
        <time>2025-11-07T15:58:18.243Z</time>
      </trkpt>
      <trkpt lat="50.67225" lon="2.16397">
        <ele>51.32</ele>
        <time>2025-11-07T15:58:22.901Z</time>
      </trkpt>
      <trkpt lat="50.67195" lon="2.16388">
        <ele>51.07</ele>
        <time>2025-11-07T15:58:27.581Z</time>
      </trkpt>
      <trkpt lat="50.67171" lon="2.16381">
        <ele>50.81</ele>
        <time>2025-11-07T15:58:32.279Z</time>
      </trkpt>
      <trkpt lat="50.67154" lon="2.1639">
        <ele>50.68</ele>
        <time>2025-11-07T15:58:36.990Z</time>
      </trkpt>
      <trkpt lat="50.67137" lon="2.16398">
        <ele>50.64</ele>
        <time>2025-11-07T15:58:41.714Z</time>
      </trkpt>
      <trkpt lat="50.67116" lon="2.16416">
        <ele>50.69</ele>
        <time>2025-11-07T15:58:46.456Z</time>
      </trkpt>
      <trkpt lat="50.67111" lon="2.16445">
        <ele>50.75</ele>
        <time>2025-11-07T15:58:51.212Z</time>
      </trkpt>
      <trkpt lat="50.67107" lon="2.16474">
        <ele>50.81</ele>
        <time>2025-11-07T15:58:55.981Z</time>
      </trkpt>
      <trkpt lat="50.67082" lon="2.16488">
        <ele>50.95</ele>
        <time>2025-11-07T15:59:00.770Z</time>
      </trkpt>
      <trkpt lat="50.67057" lon="2.16502">
        <ele>51.21</ele>
        <time>2025-11-07T15:59:05.579Z</time>
      </trkpt>
      <trkpt lat="50.67032" lon="2.16516">
        <ele>51.49</ele>
        <time>2025-11-07T15:59:10.407Z</time>
      </trkpt>
      <trkpt lat="50.67036" lon="2.16535">
        <ele>51.83</ele>
        <time>2025-11-07T15:59:15.244Z</time>
      </trkpt>
      <trkpt lat="50.67036" lon="2.16535">
        <ele>52.29</ele>
        <time>2025-11-07T15:59:20.081Z</time>
      </trkpt>
      <trkpt lat="50.67036" lon="2.16535">
        <ele>52.86</ele>
        <time>2025-11-07T15:59:24.918Z</time>
      </trkpt>
      <trkpt lat="50.67046" lon="2.16573">
        <ele>53.57</ele>
        <time>2025-11-07T15:59:29.774Z</time>
      </trkpt>
      <trkpt lat="50.67055" lon="2.16611">
        <ele>54.5</ele>
        <time>2025-11-07T15:59:34.649Z</time>
      </trkpt>
      <trkpt lat="50.67068" lon="2.16647">
        <ele>55.53</ele>
        <time>2025-11-07T15:59:39.544Z</time>
      </trkpt>
      <trkpt lat="50.67086" lon="2.16679">
        <ele>56.54</ele>
        <time>2025-11-07T15:59:44.458Z</time>
      </trkpt>
      <trkpt lat="50.67103" lon="2.1671">
        <ele>57.74</ele>
        <time>2025-11-07T15:59:49.391Z</time>
      </trkpt>
      <trkpt lat="50.67112" lon="2.1673">
        <ele>59.11</ele>
        <time>2025-11-07T15:59:54.336Z</time>
      </trkpt>
      <trkpt lat="50.67122" lon="2.1675">
        <ele>60.65</ele>
        <time>2025-11-07T15:59:59.293Z</time>
      </trkpt>
      <trkpt lat="50.67124" lon="2.16763">
        <ele>62.26</ele>
        <time>2025-11-07T16:00:04.256Z</time>
      </trkpt>
      <trkpt lat="50.67124" lon="2.16763">
        <ele>63.84</ele>
        <time>2025-11-07T16:00:09.219Z</time>
      </trkpt>
      <trkpt lat="50.67131" lon="2.16806">
        <ele>65.72</ele>
        <time>2025-11-07T16:00:14.203Z</time>
      </trkpt>
      <trkpt lat="50.67135" lon="2.16845">
        <ele>67.59</ele>
        <time>2025-11-07T16:00:19.205Z</time>
      </trkpt>
      <trkpt lat="50.67138" lon="2.16882">
        <ele>69.55</ele>
        <time>2025-11-07T16:00:24.225Z</time>
      </trkpt>
      <trkpt lat="50.67141" lon="2.16919">
        <ele>71.56</ele>
        <time>2025-11-07T16:00:29.262Z</time>
      </trkpt>
      <trkpt lat="50.67143" lon="2.16956">
        <ele>73.59</ele>
        <time>2025-11-07T16:00:34.317Z</time>
      </trkpt>
      <trkpt lat="50.67148" lon="2.16978">
        <ele>75.53</ele>
        <time>2025-11-07T16:00:39.382Z</time>
      </trkpt>
      <trkpt lat="50.67153" lon="2.17021">
        <ele>77.58</ele>
        <time>2025-11-07T16:00:44.468Z</time>
      </trkpt>
      <trkpt lat="50.67153" lon="2.17021">
        <ele>79.4</ele>
        <time>2025-11-07T16:00:49.554Z</time>
      </trkpt>
      <trkpt lat="50.67153" lon="2.17021">
        <ele>81.2</ele>
        <time>2025-11-07T16:00:54.640Z</time>
      </trkpt>
      <trkpt lat="50.67156" lon="2.17044">
        <ele>83.14</ele>
        <time>2025-11-07T16:00:59.737Z</time>
      </trkpt>
      <trkpt lat="50.67167" lon="2.17074">
        <ele>85.07</ele>
        <time>2025-11-07T16:01:04.850Z</time>
      </trkpt>
      <trkpt lat="50.67176" lon="2.17105">
        <ele>86.88</ele>
        <time>2025-11-07T16:01:09.978Z</time>
      </trkpt>
      <trkpt lat="50.67184" lon="2.17134">
        <ele>88.64</ele>
        <time>2025-11-07T16:01:15.122Z</time>
      </trkpt>
      <trkpt lat="50.67208" lon="2.17115">
        <ele>90.35</ele>
        <time>2025-11-07T16:01:20.285Z</time>
      </trkpt>
      <trkpt lat="50.67224" lon="2.17101">
        <ele>91.92</ele>
        <time>2025-11-07T16:01:25.462Z</time>
      </trkpt>
      <trkpt lat="50.6724" lon="2.17087">
        <ele>93.57</ele>
        <time>2025-11-07T16:01:30.652Z</time>
      </trkpt>
      <trkpt lat="50.67264" lon="2.17081">
        <ele>95.16</ele>
        <time>2025-11-07T16:01:35.860Z</time>
      </trkpt>
      <trkpt lat="50.67294" lon="2.17087">
        <ele>96.74</ele>
        <time>2025-11-07T16:01:41.090Z</time>
      </trkpt>
      <trkpt lat="50.6732" lon="2.17097">
        <ele>98.24</ele>
        <time>2025-11-07T16:01:46.340Z</time>
      </trkpt>
      <trkpt lat="50.67346" lon="2.17107">
        <ele>99.71</ele>
        <time>2025-11-07T16:01:51.610Z</time>
      </trkpt>
      <trkpt lat="50.67373" lon="2.17116">
        <ele>101.08</ele>
        <time>2025-11-07T16:01:56.900Z</time>
      </trkpt>
      <trkpt lat="50.67399" lon="2.17126">
        <ele>102.38</ele>
        <time>2025-11-07T16:02:02.209Z</time>
      </trkpt>
      <trkpt lat="50.67419" lon="2.17142">
        <ele>103.66</ele>
        <time>2025-11-07T16:02:07.535Z</time>
      </trkpt>
      <trkpt lat="50.67439" lon="2.17159">
        <ele>104.84</ele>
        <time>2025-11-07T16:02:12.878Z</time>
      </trkpt>
      <trkpt lat="50.67439" lon="2.17159">
        <ele>106.82</ele>
        <time>2025-11-07T16:02:18.221Z</time>
      </trkpt>
      <trkpt lat="50.6746" lon="2.17176">
        <ele>107.8</ele>
        <time>2025-11-07T16:02:23.581Z</time>
      </trkpt>
      <trkpt lat="50.6748" lon="2.17192">
        <ele>108.72</ele>
        <time>2025-11-07T16:02:28.958Z</time>
      </trkpt>
      <trkpt lat="50.67501" lon="2.17211">
        <ele>109.58</ele>
        <time>2025-11-07T16:02:34.352Z</time>
      </trkpt>
      <trkpt lat="50.67522" lon="2.1723">
        <ele>110.39</ele>
        <time>2025-11-07T16:02:39.764Z</time>
      </trkpt>
      <trkpt lat="50.67543" lon="2.17248">
        <ele>111.1</ele>
        <time>2025-11-07T16:02:45.193Z</time>
      </trkpt>
      <trkpt lat="50.67567" lon="2.17265">
        <ele>111.72</ele>
        <time>2025-11-07T16:02:50.642Z</time>
      </trkpt>
      <trkpt lat="50.67591" lon="2.17283">
        <ele>112.31</ele>
        <time>2025-11-07T16:02:56.110Z</time>
      </trkpt>
      <trkpt lat="50.67615" lon="2.173">
        <ele>112.84</ele>
        <time>2025-11-07T16:03:01.598Z</time>
      </trkpt>
      <trkpt lat="50.67639" lon="2.17317">
        <ele>113.21</ele>
        <time>2025-11-07T16:03:07.105Z</time>
      </trkpt>
      <trkpt lat="50.67653" lon="2.17331">
        <ele>113.53</ele>
        <time>2025-11-07T16:03:12.624Z</time>
      </trkpt>
      <trkpt lat="50.67667" lon="2.17345">
        <ele>113.81</ele>
        <time>2025-11-07T16:03:18.155Z</time>
      </trkpt>
      <trkpt lat="50.67691" lon="2.17373">
        <ele>114.16</ele>
        <time>2025-11-07T16:03:23.708Z</time>
      </trkpt>
      <trkpt lat="50.67704" lon="2.17392">
        <ele>114.45</ele>
        <time>2025-11-07T16:03:29.274Z</time>
      </trkpt>
      <trkpt lat="50.67716" lon="2.17411">
        <ele>114.68</ele>
        <time>2025-11-07T16:03:34.853Z</time>
      </trkpt>
      <trkpt lat="50.67734" lon="2.17428">
        <ele>114.83</ele>
        <time>2025-11-07T16:03:40.447Z</time>
      </trkpt>
      <trkpt lat="50.67751" lon="2.17446">
        <ele>114.91</ele>
        <time>2025-11-07T16:03:46.056Z</time>
      </trkpt>
      <trkpt lat="50.67774" lon="2.17462">
        <ele>114.89</ele>
        <time>2025-11-07T16:03:51.684Z</time>
      </trkpt>
      <trkpt lat="50.67798" lon="2.17478">
        <ele>114.99</ele>
        <time>2025-11-07T16:03:57.331Z</time>
      </trkpt>
      <trkpt lat="50.67815" lon="2.17486">
        <ele>115.15</ele>
        <time>2025-11-07T16:04:02.991Z</time>
      </trkpt>
      <trkpt lat="50.67831" lon="2.17487">
        <ele>115.38</ele>
        <time>2025-11-07T16:04:08.663Z</time>
      </trkpt>
      <trkpt lat="50.67847" lon="2.17489">
        <ele>115.68</ele>
        <time>2025-11-07T16:04:14.347Z</time>
      </trkpt>
      <trkpt lat="50.67872" lon="2.17482">
        <ele>116.01</ele>
        <time>2025-11-07T16:04:20.049Z</time>
      </trkpt>
      <trkpt lat="50.67896" lon="2.17476">
        <ele>116.43</ele>
        <time>2025-11-07T16:04:25.769Z</time>
      </trkpt>
      <trkpt lat="50.6792" lon="2.17469">
        <ele>116.92</ele>
        <time>2025-11-07T16:04:31.507Z</time>
      </trkpt>
      <trkpt lat="50.67946" lon="2.17478">
        <ele>117.57</ele>
        <time>2025-11-07T16:04:37.264Z</time>
      </trkpt>
      <trkpt lat="50.67963" lon="2.1749">
        <ele>118.24</ele>
        <time>2025-11-07T16:04:43.035Z</time>
      </trkpt>
      <trkpt lat="50.6798" lon="2.17501">
        <ele>118.97</ele>
        <time>2025-11-07T16:04:48.820Z</time>
      </trkpt>
      <trkpt lat="50.67993" lon="2.17516">
        <ele>119.67</ele>
        <time>2025-11-07T16:04:54.617Z</time>
      </trkpt>
      <trkpt lat="50.68015" lon="2.17533">
        <ele>120.43</ele>
        <time>2025-11-07T16:05:00.431Z</time>
      </trkpt>
      <trkpt lat="50.68036" lon="2.17549">
        <ele>121.2</ele>
        <time>2025-11-07T16:05:06.263Z</time>
      </trkpt>
      <trkpt lat="50.68054" lon="2.17561">
        <ele>122</ele>
        <time>2025-11-07T16:05:12.109Z</time>
      </trkpt>
      <trkpt lat="50.68073" lon="2.17574">
        <ele>122.83</ele>
        <time>2025-11-07T16:05:17.970Z</time>
      </trkpt>
      <trkpt lat="50.68094" lon="2.17583">
        <ele>123.68</ele>
        <time>2025-11-07T16:05:23.847Z</time>
      </trkpt>
      <trkpt lat="50.68105" lon="2.17587">
        <ele>124.53</ele>
        <time>2025-11-07T16:05:29.732Z</time>
      </trkpt>
      <trkpt lat="50.68109" lon="2.17587">
        <ele>125.35</ele>
        <time>2025-11-07T16:05:35.620Z</time>
      </trkpt>
      <trkpt lat="50.68133" lon="2.17555">
        <ele>126.18</ele>
        <time>2025-11-07T16:05:41.531Z</time>
      </trkpt>
      <trkpt lat="50.68148" lon="2.17532">
        <ele>126.98</ele>
        <time>2025-11-07T16:05:47.458Z</time>
      </trkpt>
      <trkpt lat="50.68163" lon="2.1751">
        <ele>127.82</ele>
        <time>2025-11-07T16:05:53.400Z</time>
      </trkpt>
      <trkpt lat="50.68178" lon="2.17489">
        <ele>128.68</ele>
        <time>2025-11-07T16:05:59.357Z</time>
      </trkpt>
      <trkpt lat="50.68193" lon="2.17465">
        <ele>129.52</ele>
        <time>2025-11-07T16:06:05.329Z</time>
      </trkpt>
      <trkpt lat="50.68209" lon="2.17446">
        <ele>130.25</ele>
        <time>2025-11-07T16:06:11.316Z</time>
      </trkpt>
      <trkpt lat="50.68225" lon="2.17426">
        <ele>130.94</ele>
        <time>2025-11-07T16:06:17.318Z</time>
      </trkpt>
      <trkpt lat="50.68248" lon="2.17408">
        <ele>131.69</ele>
        <time>2025-11-07T16:06:23.339Z</time>
      </trkpt>
      <trkpt lat="50.68271" lon="2.17391">
        <ele>132.32</ele>
        <time>2025-11-07T16:06:29.379Z</time>
      </trkpt>
      <trkpt lat="50.68294" lon="2.17373">
        <ele>132.89</ele>
        <time>2025-11-07T16:06:35.437Z</time>
      </trkpt>
      <trkpt lat="50.6832" lon="2.17353">
        <ele>133.45</ele>
        <time>2025-11-07T16:06:41.517Z</time>
      </trkpt>
      <trkpt lat="50.68347" lon="2.17334">
        <ele>133.96</ele>
        <time>2025-11-07T16:06:47.619Z</time>
      </trkpt>
      <trkpt lat="50.68367" lon="2.17321">
        <ele>134.34</ele>
        <time>2025-11-07T16:06:53.736Z</time>
      </trkpt>
      <trkpt lat="50.68377" lon="2.17313">
        <ele>134.73</ele>
        <time>2025-11-07T16:06:59.862Z</time>
      </trkpt>
      <trkpt lat="50.68401" lon="2.17298">
        <ele>135.04</ele>
        <time>2025-11-07T16:07:06.007Z</time>
      </trkpt>
      <trkpt lat="50.68414" lon="2.17291">
        <ele>135.38</ele>
        <time>2025-11-07T16:07:12.162Z</time>
      </trkpt>
      <trkpt lat="50.68442" lon="2.17274">
        <ele>135.73</ele>
        <time>2025-11-07T16:07:18.338Z</time>
      </trkpt>
      <trkpt lat="50.68466" lon="2.1726">
        <ele>135.97</ele>
        <time>2025-11-07T16:07:24.534Z</time>
      </trkpt>
      <trkpt lat="50.6849" lon="2.17245">
        <ele>136.18</ele>
        <time>2025-11-07T16:07:30.749Z</time>
      </trkpt>
      <trkpt lat="50.68515" lon="2.17231">
        <ele>136.25</ele>
        <time>2025-11-07T16:07:36.983Z</time>
      </trkpt>
      <trkpt lat="50.68534" lon="2.17222">
        <ele>136.22</ele>
        <time>2025-11-07T16:07:43.231Z</time>
      </trkpt>
      <trkpt lat="50.68553" lon="2.17214">
        <ele>136.19</ele>
        <time>2025-11-07T16:07:49.494Z</time>
      </trkpt>
      <trkpt lat="50.68573" lon="2.17199">
        <ele>136.19</ele>
        <time>2025-11-07T16:07:55.773Z</time>
      </trkpt>
      <trkpt lat="50.686" lon="2.1718">
        <ele>136.15</ele>
        <time>2025-11-07T16:08:02.074Z</time>
      </trkpt>
      <trkpt lat="50.6862" lon="2.17167">
        <ele>136.09</ele>
        <time>2025-11-07T16:08:08.391Z</time>
      </trkpt>
      <trkpt lat="50.68635" lon="2.17158">
        <ele>136.05</ele>
        <time>2025-11-07T16:08:14.719Z</time>
      </trkpt>
      <trkpt lat="50.68643" lon="2.17149">
        <ele>135.99</ele>
        <time>2025-11-07T16:08:21.055Z</time>
      </trkpt>
      <trkpt lat="50.68667" lon="2.17131">
        <ele>135.87</ele>
        <time>2025-11-07T16:08:27.410Z</time>
      </trkpt>
      <trkpt lat="50.68691" lon="2.17113">
        <ele>135.71</ele>
        <time>2025-11-07T16:08:33.785Z</time>
      </trkpt>
      <trkpt lat="50.68703" lon="2.17109">
        <ele>135.62</ele>
        <time>2025-11-07T16:08:40.169Z</time>
      </trkpt>
      <trkpt lat="50.6871" lon="2.17107">
        <ele>135.58</ele>
        <time>2025-11-07T16:08:46.558Z</time>
      </trkpt>
      <trkpt lat="50.68727" lon="2.17102">
        <ele>135.55</ele>
        <time>2025-11-07T16:08:52.960Z</time>
      </trkpt>
      <trkpt lat="50.68727" lon="2.17102">
        <ele>135.55</ele>
        <time>2025-11-07T16:08:59.362Z</time>
      </trkpt>
      <trkpt lat="50.68744" lon="2.17098">
        <ele>135.59</ele>
        <time>2025-11-07T16:09:05.777Z</time>
      </trkpt>
      <trkpt lat="50.68764" lon="2.17087">
        <ele>135.65</ele>
        <time>2025-11-07T16:09:12.207Z</time>
      </trkpt>
      <trkpt lat="50.6878" lon="2.1708">
        <ele>135.73</ele>
        <time>2025-11-07T16:09:18.649Z</time>
      </trkpt>
      <trkpt lat="50.68796" lon="2.17072">
        <ele>135.81</ele>
        <time>2025-11-07T16:09:25.103Z</time>
      </trkpt>
      <trkpt lat="50.68819" lon="2.17057">
        <ele>135.86</ele>
        <time>2025-11-07T16:09:31.576Z</time>
      </trkpt>
      <trkpt lat="50.68841" lon="2.17042">
        <ele>135.84</ele>
        <time>2025-11-07T16:09:38.067Z</time>
      </trkpt>
      <trkpt lat="50.68864" lon="2.17027">
        <ele>135.73</ele>
        <time>2025-11-07T16:09:44.575Z</time>
      </trkpt>
      <trkpt lat="50.68886" lon="2.17012">
        <ele>135.58</ele>
        <time>2025-11-07T16:09:51.101Z</time>
      </trkpt>
      <trkpt lat="50.6889" lon="2.17004">
        <ele>135.42</ele>
        <time>2025-11-07T16:09:57.632Z</time>
      </trkpt>
      <trkpt lat="50.68904" lon="2.1698">
        <ele>135.24</ele>
        <time>2025-11-07T16:10:04.178Z</time>
      </trkpt>
      <trkpt lat="50.68918" lon="2.16956">
        <ele>135.02</ele>
        <time>2025-11-07T16:10:10.739Z</time>
      </trkpt>
      <trkpt lat="50.68936" lon="2.16936">
        <ele>134.72</ele>
        <time>2025-11-07T16:10:17.317Z</time>
      </trkpt>
      <trkpt lat="50.68954" lon="2.16916">
        <ele>134.25</ele>
        <time>2025-11-07T16:10:23.911Z</time>
      </trkpt>
      <trkpt lat="50.68976" lon="2.16886">
        <ele>133.73</ele>
        <time>2025-11-07T16:10:30.526Z</time>
      </trkpt>
      <trkpt lat="50.68987" lon="2.16875">
        <ele>133.28</ele>
        <time>2025-11-07T16:10:37.151Z</time>
      </trkpt>
      <trkpt lat="50.69" lon="2.16868">
        <ele>132.81</ele>
        <time>2025-11-07T16:10:43.785Z</time>
      </trkpt>
      <trkpt lat="50.69008" lon="2.16871">
        <ele>132.35</ele>
        <time>2025-11-07T16:10:50.426Z</time>
      </trkpt>
      <trkpt lat="50.69017" lon="2.16879">
        <ele>131.9</ele>
        <time>2025-11-07T16:10:57.074Z</time>
      </trkpt>
      <trkpt lat="50.69023" lon="2.16886">
        <ele>131.41</ele>
        <time>2025-11-07T16:11:03.728Z</time>
      </trkpt>
      <trkpt lat="50.69045" lon="2.16892">
        <ele>130.9</ele>
        <time>2025-11-07T16:11:10.398Z</time>
      </trkpt>
      <trkpt lat="50.69066" lon="2.16898">
        <ele>130.35</ele>
        <time>2025-11-07T16:11:17.084Z</time>
      </trkpt>
      <trkpt lat="50.6909" lon="2.16916">
        <ele>129.73</ele>
        <time>2025-11-07T16:11:23.789Z</time>
      </trkpt>
      <trkpt lat="50.69111" lon="2.16924">
        <ele>128.88</ele>
        <time>2025-11-07T16:11:30.510Z</time>
      </trkpt>
      <trkpt lat="50.69133" lon="2.16933">
        <ele>127.89</ele>
        <time>2025-11-07T16:11:37.248Z</time>
      </trkpt>
      <trkpt lat="50.69153" lon="2.16932">
        <ele>126.78</ele>
        <time>2025-11-07T16:11:44.001Z</time>
      </trkpt>
      <trkpt lat="50.69173" lon="2.16931">
        <ele>125.57</ele>
        <time>2025-11-07T16:11:50.769Z</time>
      </trkpt>
      <trkpt lat="50.69193" lon="2.16924">
        <ele>124.32</ele>
        <time>2025-11-07T16:11:57.551Z</time>
      </trkpt>
      <trkpt lat="50.69212" lon="2.16918">
        <ele>123.09</ele>
        <time>2025-11-07T16:12:04.347Z</time>
      </trkpt>
      <trkpt lat="50.69237" lon="2.16947">
        <ele>122.21</ele>
        <time>2025-11-07T16:12:11.166Z</time>
      </trkpt>
      <trkpt lat="50.6924" lon="2.1695">
        <ele>120.94</ele>
        <time>2025-11-07T16:12:17.988Z</time>
      </trkpt>
      <trkpt lat="50.69257" lon="2.16985">
        <ele>120.59</ele>
        <time>2025-11-07T16:12:24.830Z</time>
      </trkpt>
      <trkpt lat="50.69273" lon="2.1702">
        <ele>120.24</ele>
        <time>2025-11-07T16:12:31.693Z</time>
      </trkpt>
      <trkpt lat="50.6929" lon="2.17056">
        <ele>119.95</ele>
        <time>2025-11-07T16:12:38.577Z</time>
      </trkpt>
      <trkpt lat="50.69307" lon="2.17091">
        <ele>119.63</ele>
        <time>2025-11-07T16:12:45.481Z</time>
      </trkpt>
      <trkpt lat="50.69324" lon="2.17126">
        <ele>119.46</ele>
        <time>2025-11-07T16:12:52.405Z</time>
      </trkpt>
      <trkpt lat="50.69334" lon="2.17158">
        <ele>119.55</ele>
        <time>2025-11-07T16:12:59.346Z</time>
      </trkpt>
      <trkpt lat="50.69345" lon="2.1719">
        <ele>119.71</ele>
        <time>2025-11-07T16:13:06.304Z</time>
      </trkpt>
      <trkpt lat="50.69359" lon="2.17214">
        <ele>119.74</ele>
        <time>2025-11-07T16:13:13.277Z</time>
      </trkpt>
      <trkpt lat="50.69381" lon="2.17249">
        <ele>119.85</ele>
        <time>2025-11-07T16:13:20.273Z</time>
      </trkpt>
      <trkpt lat="50.69403" lon="2.17284">
        <ele>120.02</ele>
        <time>2025-11-07T16:13:27.292Z</time>
      </trkpt>
      <trkpt lat="50.69424" lon="2.17319">
        <ele>120.04</ele>
        <time>2025-11-07T16:13:34.334Z</time>
      </trkpt>
      <trkpt lat="50.69438" lon="2.17347">
        <ele>119.88</ele>
        <time>2025-11-07T16:13:41.393Z</time>
      </trkpt>
      <trkpt lat="50.69452" lon="2.17375">
        <ele>119.54</ele>
        <time>2025-11-07T16:13:48.468Z</time>
      </trkpt>
      <trkpt lat="50.69472" lon="2.17403">
        <ele>119.02</ele>
        <time>2025-11-07T16:13:55.562Z</time>
      </trkpt>
      <trkpt lat="50.6948" lon="2.17427">
        <ele>118.48</ele>
        <time>2025-11-07T16:14:02.669Z</time>
      </trkpt>
      <trkpt lat="50.69489" lon="2.17452">
        <ele>117.9</ele>
        <time>2025-11-07T16:14:09.790Z</time>
      </trkpt>
      <trkpt lat="50.69508" lon="2.17469">
        <ele>117.21</ele>
        <time>2025-11-07T16:14:16.927Z</time>
      </trkpt>
      <trkpt lat="50.69527" lon="2.17486">
        <ele>116.49</ele>
        <time>2025-11-07T16:14:24.080Z</time>
      </trkpt>
      <trkpt lat="50.69552" lon="2.175">
        <ele>115.7</ele>
        <time>2025-11-07T16:14:31.252Z</time>
      </trkpt>
      <trkpt lat="50.69577" lon="2.17514">
        <ele>114.94</ele>
        <time>2025-11-07T16:14:38.444Z</time>
      </trkpt>
      <trkpt lat="50.69601" lon="2.17537">
        <ele>114.17</ele>
        <time>2025-11-07T16:14:45.657Z</time>
      </trkpt>
      <trkpt lat="50.69626" lon="2.17559">
        <ele>113.24</ele>
        <time>2025-11-07T16:14:52.891Z</time>
      </trkpt>
      <trkpt lat="50.69645" lon="2.17581">
        <ele>112.24</ele>
        <time>2025-11-07T16:15:00.141Z</time>
      </trkpt>
      <trkpt lat="50.69663" lon="2.17602">
        <ele>111.19</ele>
        <time>2025-11-07T16:15:07.408Z</time>
      </trkpt>
      <trkpt lat="50.69682" lon="2.17624">
        <ele>110.13</ele>
        <time>2025-11-07T16:15:14.692Z</time>
      </trkpt>
      <trkpt lat="50.69701" lon="2.17654">
        <ele>108.97</ele>
        <time>2025-11-07T16:15:21.996Z</time>
      </trkpt>
      <trkpt lat="50.69721" lon="2.17684">
        <ele>107.81</ele>
        <time>2025-11-07T16:15:29.320Z</time>
      </trkpt>
      <trkpt lat="50.69742" lon="2.17702">
        <ele>106.68</ele>
        <time>2025-11-07T16:15:36.662Z</time>
      </trkpt>
      <trkpt lat="50.69763" lon="2.1772">
        <ele>105.56</ele>
        <time>2025-11-07T16:15:44.022Z</time>
      </trkpt>
      <trkpt lat="50.69788" lon="2.17731">
        <ele>104.39</ele>
        <time>2025-11-07T16:15:51.401Z</time>
      </trkpt>
      <trkpt lat="50.69814" lon="2.17742">
        <ele>103.14</ele>
        <time>2025-11-07T16:15:58.799Z</time>
      </trkpt>
      <trkpt lat="50.69839" lon="2.17752">
        <ele>101.85</ele>
        <time>2025-11-07T16:16:06.216Z</time>
      </trkpt>
      <trkpt lat="50.69849" lon="2.17771">
        <ele>100.65</ele>
        <time>2025-11-07T16:16:13.645Z</time>
      </trkpt>
      <trkpt lat="50.6986" lon="2.17789">
        <ele>99.38</ele>
        <time>2025-11-07T16:16:21.085Z</time>
      </trkpt>
      <trkpt lat="50.69882" lon="2.17817">
        <ele>97.93</ele>
        <time>2025-11-07T16:16:28.546Z</time>
      </trkpt>
      <trkpt lat="50.69894" lon="2.17832">
        <ele>96.57</ele>
        <time>2025-11-07T16:16:36.018Z</time>
      </trkpt>
      <trkpt lat="50.69907" lon="2.17847">
        <ele>95.24</ele>
        <time>2025-11-07T16:16:43.502Z</time>
      </trkpt>
      <trkpt lat="50.6992" lon="2.17862">
        <ele>93.87</ele>
        <time>2025-11-07T16:16:50.998Z</time>
      </trkpt>
      <trkpt lat="50.69937" lon="2.17881">
        <ele>92.47</ele>
        <time>2025-11-07T16:16:58.510Z</time>
      </trkpt>
      <trkpt lat="50.69957" lon="2.17896">
        <ele>91.02</ele>
        <time>2025-11-07T16:17:06.037Z</time>
      </trkpt>
      <trkpt lat="50.69976" lon="2.17916">
        <ele>89.5</ele>
        <time>2025-11-07T16:17:13.581Z</time>
      </trkpt>
      <trkpt lat="50.69999" lon="2.17939">
        <ele>87.79</ele>
        <time>2025-11-07T16:17:21.146Z</time>
      </trkpt>
      <trkpt lat="50.70017" lon="2.17956">
        <ele>86.06</ele>
        <time>2025-11-07T16:17:28.726Z</time>
      </trkpt>
      <trkpt lat="50.70038" lon="2.17976">
        <ele>84.24</ele>
        <time>2025-11-07T16:17:36.324Z</time>
      </trkpt>
      <trkpt lat="50.7006" lon="2.17991">
        <ele>82.36</ele>
        <time>2025-11-07T16:17:43.939Z</time>
      </trkpt>
      <trkpt lat="50.70083" lon="2.18004">
        <ele>80.45</ele>
        <time>2025-11-07T16:17:51.572Z</time>
      </trkpt>
      <trkpt lat="50.70105" lon="2.18008">
        <ele>78.54</ele>
        <time>2025-11-07T16:17:59.221Z</time>
      </trkpt>
      <trkpt lat="50.70117" lon="2.18006">
        <ele>76.52</ele>
        <time>2025-11-07T16:18:06.880Z</time>
      </trkpt>
      <trkpt lat="50.7013" lon="2.18004">
        <ele>74.43</ele>
        <time>2025-11-07T16:18:14.548Z</time>
      </trkpt>
      <trkpt lat="50.70141" lon="2.18001">
        <ele>72.31</ele>
        <time>2025-11-07T16:18:22.224Z</time>
      </trkpt>
      <trkpt lat="50.70152" lon="2.17995">
        <ele>70.07</ele>
        <time>2025-11-07T16:18:29.909Z</time>
      </trkpt>
      <trkpt lat="50.70175" lon="2.17982">
        <ele>67.62</ele>
        <time>2025-11-07T16:18:37.612Z</time>
      </trkpt>
      <trkpt lat="50.70201" lon="2.17978">
        <ele>65.17</ele>
        <time>2025-11-07T16:18:45.334Z</time>
      </trkpt>
      <trkpt lat="50.70231" lon="2.17984">
        <ele>62.76</ele>
        <time>2025-11-07T16:18:53.078Z</time>
      </trkpt>
      <trkpt lat="50.70248" lon="2.17991">
        <ele>60.55</ele>
        <time>2025-11-07T16:19:00.835Z</time>
      </trkpt>
      <trkpt lat="50.70261" lon="2.17995">
        <ele>58.4</ele>
        <time>2025-11-07T16:19:08.602Z</time>
      </trkpt>
      <trkpt lat="50.70276" lon="2.18004">
        <ele>56.29</ele>
        <time>2025-11-07T16:19:16.381Z</time>
      </trkpt>
      <trkpt lat="50.70284" lon="2.18007">
        <ele>54.33</ele>
        <time>2025-11-07T16:19:24.165Z</time>
      </trkpt>
      <trkpt lat="50.70308" lon="2.18019">
        <ele>52.36</ele>
        <time>2025-11-07T16:19:31.968Z</time>
      </trkpt>
      <trkpt lat="50.70329" lon="2.18041">
        <ele>50.45</ele>
        <time>2025-11-07T16:19:39.790Z</time>
      </trkpt>
      <trkpt lat="50.7035" lon="2.18064">
        <ele>48.79</ele>
        <time>2025-11-07T16:19:47.630Z</time>
      </trkpt>
      <trkpt lat="50.70371" lon="2.18087">
        <ele>47.31</ele>
        <time>2025-11-07T16:19:55.489Z</time>
      </trkpt>
      <trkpt lat="50.70378" lon="2.1805">
        <ele>46.12</ele>
        <time>2025-11-07T16:20:03.366Z</time>
      </trkpt>
      <trkpt lat="50.70386" lon="2.18012">
        <ele>45.04</ele>
        <time>2025-11-07T16:20:11.262Z</time>
      </trkpt>
      <trkpt lat="50.70386" lon="2.17981">
        <ele>44.15</ele>
        <time>2025-11-07T16:20:19.172Z</time>
      </trkpt>
      <trkpt lat="50.70386" lon="2.1795">
        <ele>43.33</ele>
        <time>2025-11-07T16:20:27.097Z</time>
      </trkpt>
      <trkpt lat="50.70388" lon="2.17926">
        <ele>42.67</ele>
        <time>2025-11-07T16:20:35.033Z</time>
      </trkpt>
      <trkpt lat="50.70394" lon="2.17909">
        <ele>42.13</ele>
        <time>2025-11-07T16:20:42.978Z</time>
      </trkpt>
      <trkpt lat="50.70399" lon="2.17903">
        <ele>41.71</ele>
        <time>2025-11-07T16:20:50.927Z</time>
      </trkpt>
      <trkpt lat="50.70409" lon="2.17922">
        <ele>41.42</ele>
        <time>2025-11-07T16:20:58.888Z</time>
      </trkpt>
      <trkpt lat="50.70414" lon="2.17933">
        <ele>41.25</ele>
        <time>2025-11-07T16:21:06.855Z</time>
      </trkpt>
      <trkpt lat="50.70424" lon="2.17961">
        <ele>41.19</ele>
        <time>2025-11-07T16:21:14.838Z</time>
      </trkpt>
      <trkpt lat="50.70435" lon="2.17988">
        <ele>41.16</ele>
        <time>2025-11-07T16:21:22.836Z</time>
      </trkpt>
      <trkpt lat="50.70441" lon="2.18012">
        <ele>41.12</ele>
        <time>2025-11-07T16:21:30.846Z</time>
      </trkpt>
      <trkpt lat="50.70441" lon="2.18039">
        <ele>41.07</ele>
        <time>2025-11-07T16:21:38.868Z</time>
      </trkpt>
      <trkpt lat="50.70441" lon="2.18066">
        <ele>40.92</ele>
        <time>2025-11-07T16:21:46.903Z</time>
      </trkpt>
      <trkpt lat="50.70438" lon="2.18095">
        <ele>40.63</ele>
        <time>2025-11-07T16:21:54.951Z</time>
      </trkpt>
      <trkpt lat="50.70435" lon="2.18124">
        <ele>40.24</ele>
        <time>2025-11-07T16:22:03.013Z</time>
      </trkpt>
      <trkpt lat="50.70446" lon="2.18134">
        <ele>38.76</ele>
        <time>2025-11-07T16:22:11.084Z</time>
      </trkpt>
      <trkpt lat="50.70457" lon="2.18179">
        <ele>37.95</ele>
        <time>2025-11-07T16:22:19.178Z</time>
      </trkpt>
      <trkpt lat="50.70481" lon="2.18203">
        <ele>38.25</ele>
        <time>2025-11-07T16:22:27.293Z</time>
      </trkpt>
      <trkpt lat="50.70505" lon="2.18227">
        <ele>37.39</ele>
        <time>2025-11-07T16:22:35.429Z</time>
      </trkpt>
      <trkpt lat="50.70529" lon="2.1825">
        <ele>35.32</ele>
        <time>2025-11-07T16:22:43.586Z</time>
      </trkpt>
      <trkpt lat="50.70544" lon="2.18265">
        <ele>34.5</ele>
        <time>2025-11-07T16:22:51.756Z</time>
      </trkpt>
      <trkpt lat="50.70557" lon="2.18271">
        <ele>34.91</ele>
        <time>2025-11-07T16:22:59.936Z</time>
      </trkpt>
    </trkseg>
  </trk>
</gpx>